createdAt,value
2022-10-22T00:02:23.594Z,98111.59
2022-10-22T00:05:30.121Z,98108.88
2022-10-22T00:08:36.412Z,98107.88
2022-10-22T00:11:43.163Z,98095.50
2022-10-22T00:14:52.104Z,98106.00
2022-10-22T00:17:58.661Z,98106.91
2022-10-22T00:21:04.395Z,98106.91
2022-10-22T00:24:11.179Z,98109.53
2022-10-22T00:27:17.234Z,98101.94
2022-10-22T00:30:26.977Z,98098.47
2022-10-22T00:33:33.649Z,98103.72
2022-10-22T00:36:40.538Z,98114.97
2022-10-22T00:39:46.319Z,98106.16
2022-10-22T00:42:52.986Z,98103.47
2022-10-22T00:46:03.515Z,98099.06
2022-10-22T00:49:10.259Z,98080.31
2022-10-22T00:52:16.858Z,98086.91
2022-10-22T00:55:24.656Z,98097.38
2022-10-22T00:58:33.232Z,98097.38
2022-10-22T01:01:43.637Z,98090.44
2022-10-22T01:04:49.259Z,98095.69
2022-10-22T01:07:57.155Z,98097.56
2022-10-22T01:11:14.822Z,98094.19
2022-10-22T01:14:28.912Z,98096.03
2022-10-22T01:17:43.636Z,98100.63
2022-10-22T01:21:03.299Z,98087.59
2022-10-22T01:24:31.127Z,98091.34
2022-10-22T01:27:51.818Z,98101.16
2022-10-22T01:31:03.606Z,98098.66
2022-10-22T01:34:12.821Z,98082.94
2022-10-22T01:37:20.993Z,98081.41
2022-10-22T01:40:28.539Z,98076.09
2022-10-22T01:43:34.327Z,98079.56
2022-10-22T01:46:43.687Z,98068.22
2022-10-22T01:50:07.508Z,98067.56
2022-10-22T01:53:24.472Z,98067.56
2022-10-22T01:56:51.882Z,98065.88
2022-10-22T02:00:06.311Z,98059.81
2022-10-22T02:03:23.714Z,98071.13
2022-10-22T02:06:33.388Z,98065.03
2022-10-22T02:09:39.773Z,98062.31
2022-10-22T02:12:48.463Z,98059.88
2022-10-22T02:15:55.436Z,98063.44
2022-10-22T02:19:09.066Z,98068.75
2022-10-22T02:22:14.805Z,98059.13
2022-10-22T02:25:21.329Z,98055.75
2022-10-22T02:28:32.466Z,98048.81
2022-10-22T02:31:43.182Z,98064.81
2022-10-22T02:34:54.421Z,98057.31
2022-10-22T02:38:03.865Z,98038.19
2022-10-22T02:41:09.927Z,98047.00
2022-10-22T02:44:16.379Z,98048.94
2022-10-22T02:47:22.002Z,98060.56
2022-10-22T02:50:31.290Z,98076.44
2022-10-22T02:53:36.937Z,98069.66
2022-10-22T02:56:43.396Z,98075.84
2022-10-22T02:59:49.051Z,98080.41
2022-10-22T03:02:55.447Z,98077.09
2022-10-22T03:06:03.980Z,98083.34
2022-10-22T03:09:10.462Z,98081.00
2022-10-22T03:12:16.081Z,98092.59
2022-10-22T03:15:22.893Z,98097.03
2022-10-22T03:18:28.540Z,98084.91
2022-10-22T03:21:40.896Z,98085.66
2022-10-22T03:24:49.477Z,98070.88
2022-10-22T03:27:58.966Z,98083.03
2022-10-22T03:31:06.788Z,98064.63
2022-10-22T03:34:13.715Z,98052.50
2022-10-22T03:37:22.690Z,98045.38
2022-10-22T03:40:29.260Z,98039.31
2022-10-22T03:43:35.029Z,98028.84
2022-10-22T03:46:41.619Z,98038.38
2022-10-22T03:49:47.212Z,98049.59
2022-10-22T03:52:58.314Z,98046.06
2022-10-22T03:56:03.980Z,98052.97
2022-10-22T03:59:10.587Z,98061.78
2022-10-22T04:02:17.621Z,98060.81
2022-10-22T04:05:27.097Z,98065.13
2022-10-22T04:08:35.531Z,98064.97
2022-10-22T04:11:42.244Z,98076.94
2022-10-22T04:14:47.877Z,98076.78
2022-10-22T04:17:54.569Z,98083.50
2022-10-22T04:21:00.279Z,98076.25
2022-10-22T04:24:11.998Z,98080.53
2022-10-22T04:27:17.657Z,98070.00
2022-10-22T04:30:24.131Z,98053.44
2022-10-22T04:33:29.937Z,98043.13
2022-10-22T04:36:37.139Z,98039.59
2022-10-22T04:39:47.615Z,98044.84
2022-10-22T04:42:54.219Z,98045.00
2022-10-22T04:46:03.485Z,98024.88
2022-10-22T04:49:09.975Z,98026.59
2022-10-22T04:52:15.575Z,98021.34
2022-10-22T04:55:24.860Z,98016.09
2022-10-22T04:58:30.499Z,98020.50
2022-10-22T05:01:41.722Z,98008.44
2022-10-22T05:04:48.689Z,98008.34
2022-10-22T05:07:55.470Z,98015.09
2022-10-22T05:11:04.029Z,98016.28
2022-10-22T05:14:11.045Z,98033.69
2022-10-22T05:17:16.681Z,98035.72
2022-10-22T05:20:23.362Z,98045.34
2022-10-22T05:23:28.985Z,98052.28
2022-10-22T05:26:38.369Z,98052.47
2022-10-22T05:29:44.588Z,98057.88
2022-10-22T05:32:52.577Z,98049.09
2022-10-22T05:35:58.446Z,98048.16
2022-10-22T05:39:07.861Z,98063.84
2022-10-22T05:42:16.223Z,98071.69
2022-10-22T05:45:22.759Z,98047.06
2022-10-22T05:48:28.412Z,98037.22
2022-10-22T05:51:37.663Z,98043.13
2022-10-22T05:54:43.561Z,98058.69
2022-10-22T05:57:52.816Z,98064.56
2022-10-22T06:00:58.473Z,98060.16
2022-10-22T06:04:09.466Z,98049.56
2022-10-22T06:07:18.238Z,98054.63
2022-10-22T06:10:25.462Z,98063.41
2022-10-22T06:13:33.813Z,98072.09
2022-10-22T06:16:40.868Z,98078.09
2022-10-22T06:19:46.449Z,98076.91
2022-10-22T06:22:52.893Z,98088.22
2022-10-22T06:26:04.647Z,98105.34
2022-10-22T06:29:14.248Z,98093.75
2022-10-22T06:32:19.820Z,98096.31
2022-10-22T06:35:26.951Z,98098.41
2022-10-22T06:38:32.532Z,98101.50
2022-10-22T06:41:38.969Z,98106.56
2022-10-22T06:44:47.620Z,98109.00
2022-10-22T06:47:54.112Z,98114.91
2022-10-22T06:51:04.095Z,98113.69
2022-10-22T06:54:11.089Z,98102.84
2022-10-22T06:57:16.689Z,98112.78
2022-10-22T07:00:26.223Z,98118.31
2022-10-22T07:03:31.846Z,98114.34
2022-10-22T07:06:43.836Z,98107.72
2022-10-22T07:09:51.352Z,98118.47
2022-10-22T07:12:57.964Z,98125.69
2022-10-22T07:16:07.081Z,98109.97
2022-10-22T07:19:13.524Z,98100.94
2022-10-22T07:22:19.103Z,98103.81
2022-10-22T07:25:25.585Z,98109.72
2022-10-22T07:28:32.698Z,98118.16
2022-10-22T07:31:41.958Z,98119.53
2022-10-22T07:34:47.562Z,98117.34
2022-10-22T07:37:54.107Z,98119.59
2022-10-22T07:40:59.686Z,98128.31
2022-10-22T07:44:07.730Z,98118.25
2022-10-22T07:47:16.132Z,98100.84
2022-10-22T07:50:22.755Z,98108.13
2022-10-22T07:53:28.715Z,98120.03
2022-10-22T07:56:35.172Z,98122.56
2022-10-22T07:59:40.798Z,98122.66
2022-10-22T08:02:50.138Z,98117.94
2022-10-22T08:05:56.868Z,98113.53
2022-10-22T08:09:03.534Z,98106.50
2022-10-22T08:12:10.190Z,98106.53
2022-10-22T08:15:16.663Z,98098.38
2022-10-22T08:18:25.049Z,98104.50
2022-10-22T08:21:31.481Z,98114.03
2022-10-22T08:24:37.473Z,98124.56
2022-10-22T08:27:44.813Z,98120.34
2022-10-22T08:30:50.690Z,98118.25
2022-10-22T08:33:59.985Z,98121.53
2022-10-22T08:37:08.650Z,98122.91
2022-10-22T08:40:24.073Z,98120.88
2022-10-22T08:43:48.576Z,98145.31
2022-10-22T08:47:18.608Z,98151.50
2022-10-22T08:50:34.082Z,98152.25
2022-10-22T08:53:48.489Z,98161.19
2022-10-22T08:57:04.132Z,98153.28
2022-10-22T09:00:17.546Z,98146.88
2022-10-22T09:03:38.162Z,98146.44
2022-10-22T09:06:49.580Z,98143.41
2022-10-22T09:10:04.086Z,98133.81
2022-10-22T09:13:12.753Z,98139.72
2022-10-22T09:16:21.386Z,98142.00
2022-10-22T09:19:36.152Z,98140.66
2022-10-22T09:22:53.127Z,98154.44
2022-10-22T09:26:00.872Z,98138.13
2022-10-22T09:29:10.634Z,98140.97
2022-10-22T09:32:17.543Z,98159.00
2022-10-22T09:35:27.508Z,98161.91
2022-10-22T09:38:42.227Z,98166.91
2022-10-22T09:41:48.712Z,98166.44
2022-10-22T09:44:57.805Z,98146.25
2022-10-22T09:48:14.790Z,98154.34
2022-10-22T09:51:23.906Z,98151.50
2022-10-22T09:54:42.082Z,98154.03
2022-10-22T09:57:56.285Z,98163.94
2022-10-22T10:01:06.560Z,98163.72
2022-10-22T10:04:15.685Z,98166.66
2022-10-22T10:07:23.003Z,98159.00
2022-10-22T10:10:40.137Z,98165.19
2022-10-22T10:13:54.208Z,98155.59
2022-10-22T10:17:07.603Z,98154.88
2022-10-22T10:20:27.208Z,98159.72
2022-10-22T10:23:39.547Z,98149.81
2022-10-22T10:26:57.841Z,98147.72
2022-10-22T10:30:08.734Z,98147.31
2022-10-22T10:33:26.337Z,98156.16
2022-10-22T10:36:40.972Z,98153.19
2022-10-22T10:40:06.358Z,98150.22
2022-10-22T10:43:20.271Z,98140.34
2022-10-22T10:46:37.153Z,98134.84
2022-10-22T10:49:46.576Z,98139.66
2022-10-22T10:53:00.767Z,98139.34
2022-10-22T10:56:22.522Z,98139.34
2022-10-22T10:59:48.545Z,98137.66
2022-10-22T11:03:20.964Z,98131.97
2022-10-22T11:06:28.522Z,98142.16
2022-10-22T11:09:39.947Z,98136.47
2022-10-22T11:12:49.076Z,98127.94
2022-10-22T11:16:06.787Z,98109.91
2022-10-22T11:19:23.013Z,98117.59
2022-10-22T11:23:13.115Z,98125.09
2022-10-22T11:26:18.732Z,98106.97
2022-10-22T11:29:30.729Z,98109.59
2022-10-22T11:32:43.161Z,98110.72
2022-10-22T11:35:51.980Z,98107.16
2022-10-22T11:38:57.727Z,98113.06
2022-10-22T11:42:07.494Z,98106.56
2022-10-22T11:45:32.128Z,98107.41
2022-10-22T11:48:41.942Z,98108.00
2022-10-22T11:51:49.222Z,98104.88
2022-10-22T11:55:00.814Z,98115.19
2022-10-22T11:58:30.820Z,98118.34
2022-10-22T12:01:45.872Z,98119.31
2022-10-22T12:04:54.483Z,98111.41
2022-10-22T12:08:04.097Z,98101.28
2022-10-22T12:11:24.015Z,98097.09
2022-10-22T12:14:37.259Z,98098.59
2022-10-22T12:17:45.641Z,98102.81
2022-10-22T12:20:58.976Z,98109.59
2022-10-22T12:24:06.591Z,98099.53
2022-10-22T12:27:22.683Z,98094.47
2022-10-22T12:30:30.872Z,98099.59
2022-10-22T12:33:37.304Z,98091.31
2022-10-22T12:36:45.722Z,98099.41
2022-10-22T12:39:52.136Z,98093.63
2022-10-22T12:43:00.444Z,98096.16
2022-10-22T12:46:14.610Z,98086.88
2022-10-22T12:49:25.484Z,98091.53
2022-10-22T12:52:35.590Z,98091.09
2022-10-22T12:55:42.214Z,98091.09
2022-10-22T12:58:54.396Z,98080.59
2022-10-22T13:02:00.307Z,98082.06
2022-10-22T13:05:27.753Z,98069.84
2022-10-22T13:08:37.546Z,98072.50
2022-10-22T13:11:52.313Z,98063.66
2022-10-22T13:14:57.973Z,98078.28
2022-10-22T13:18:06.706Z,98078.91
2022-10-22T13:21:26.586Z,98066.50
2022-10-22T13:24:39.294Z,98075.31
2022-10-22T13:27:46.861Z,98080.91
2022-10-22T13:30:58.452Z,98086.91
2022-10-22T13:34:11.780Z,98082.25
2022-10-22T13:37:20.444Z,98086.03
2022-10-22T13:40:30.065Z,98079.81
2022-10-22T13:43:36.567Z,98082.72
2022-10-22T13:46:43.902Z,98090.56
2022-10-22T13:49:50.444Z,98084.97
2022-10-22T13:52:58.322Z,98093.28
2022-10-22T13:56:07.623Z,98090.31
2022-10-22T13:59:13.234Z,98087.34
2022-10-22T14:02:24.736Z,98085.03
2022-10-22T14:05:30.717Z,98093.59
2022-10-22T14:08:37.272Z,98095.75
2022-10-22T14:11:45.817Z,98104.97
2022-10-22T14:14:52.245Z,98100.19
2022-10-22T14:18:00.462Z,98113.84
2022-10-22T14:21:10.071Z,98107.50
2022-10-22T14:24:15.694Z,98110.53
2022-10-22T14:27:25.098Z,98110.72
2022-10-22T14:30:33.041Z,98094.78
2022-10-22T14:33:39.500Z,98096.19
2022-10-22T14:36:46.579Z,98101.31
2022-10-22T14:40:03.269Z,98113.16
2022-10-22T14:43:14.021Z,98113.31
2022-10-22T14:46:21.683Z,98114.19
2022-10-22T14:49:27.284Z,98113.31
2022-10-22T14:52:33.753Z,98116.91
2022-10-22T14:55:39.477Z,98115.38
2022-10-22T14:58:49.110Z,98101.53
2022-10-22T15:01:54.711Z,98110.25
2022-10-22T15:05:01.203Z,98112.03
2022-10-22T15:08:07.827Z,98106.03
2022-10-22T15:11:15.707Z,98107.63
2022-10-22T15:14:24.249Z,98117.28
2022-10-22T15:17:31.008Z,98113.69
2022-10-22T15:20:37.177Z,98123.44
2022-10-22T15:23:43.658Z,98121.00
2022-10-22T15:26:51.070Z,98126.25
2022-10-22T15:33:11.597Z,98124.56
2022-10-22T15:36:19.484Z,98140.03
2022-10-22T15:39:25.974Z,98138.69
2022-10-22T15:42:32.395Z,98157.16
2022-10-22T15:45:41.098Z,98157.00
2022-10-22T15:48:48.272Z,98151.19
2022-10-22T15:51:53.907Z,98154.91
2022-10-22T15:55:03.908Z,98156.69
2022-10-22T15:58:09.797Z,98151.66
2022-10-22T16:01:19.253Z,98170.06
2022-10-22T16:04:24.891Z,98165.00
2022-10-22T16:07:32.774Z,98167.84
2022-10-22T16:10:38.367Z,98165.97
2022-10-22T16:13:44.804Z,98159.75
2022-10-22T16:16:55.695Z,98168.97
2022-10-22T16:20:03.349Z,98182.44
2022-10-22T16:23:09.159Z,98169.34
2022-10-22T16:26:16.048Z,98163.16
2022-10-22T16:29:22.035Z,98179.53
2022-10-22T16:32:31.322Z,98180.75
2022-10-22T16:35:37.395Z,98180.19
2022-10-22T16:38:44.174Z,98188.22
2022-10-22T16:41:49.763Z,98190.03
2022-10-22T16:44:56.199Z,98192.72
2022-10-22T16:48:06.247Z,98196.09
2022-10-22T16:51:15.613Z,98217.06
2022-10-22T16:54:22.034Z,98223.78
2022-10-22T16:57:28.906Z,98229.22
2022-10-22T17:00:34.565Z,98231.06
2022-10-22T17:03:44.283Z,98228.44
2022-10-22T17:06:50.109Z,98233.44
2022-10-22T17:09:57.907Z,98231.41
2022-10-22T17:13:04.181Z,98247.94
2022-10-22T17:16:15.783Z,98244.56
2022-10-22T17:19:24.803Z,98246.91
2022-10-22T17:22:31.721Z,98241.94
2022-10-22T17:25:43.869Z,98237.47
2022-10-22T17:28:50.948Z,98245.59
2022-10-22T17:31:56.742Z,98242.06
2022-10-22T17:35:08.958Z,98248.97
2022-10-22T17:38:16.026Z,98247.94
2022-10-22T17:41:24.111Z,98245.56
2022-10-22T17:44:29.699Z,98255.19
2022-10-22T17:47:36.259Z,98262.31
2022-10-22T17:50:49.642Z,98261.28
2022-10-22T17:53:58.735Z,98260.63
2022-10-22T17:57:06.768Z,98259.63
2022-10-22T18:00:16.410Z,98258.75
2022-10-22T18:03:22.087Z,98265.50
2022-10-22T18:06:31.915Z,98261.97
2022-10-22T18:09:37.574Z,98261.47
2022-10-22T18:12:44.109Z,98260.72
2022-10-22T18:15:57.421Z,98270.28
2022-10-22T18:19:04.607Z,98274.00
2022-10-22T18:22:12.984Z,98263.50
2022-10-22T18:25:19.424Z,98265.53
2022-10-22T18:28:25.140Z,98275.13
2022-10-22T18:31:31.963Z,98263.50
2022-10-22T18:34:38.132Z,98259.97
2022-10-22T18:37:47.643Z,98260.88
2022-10-22T18:40:53.567Z,98261.63
2022-10-22T18:44:03.853Z,98271.94
2022-10-22T18:47:09.514Z,98270.09
2022-10-22T18:50:16.198Z,98273.66
2022-10-22T18:53:24.755Z,98285.84
2022-10-22T18:56:31.215Z,98290.88
2022-10-22T18:59:37.046Z,98281.25
2022-10-22T19:02:44.122Z,98289.03
2022-10-22T19:05:52.566Z,98290.53
2022-10-22T19:09:04.643Z,98302.63
2022-10-22T19:12:10.797Z,98305.91
2022-10-22T19:15:17.627Z,98319.50
2022-10-22T19:18:23.330Z,98315.84
2022-10-22T19:21:30.276Z,98319.44
2022-10-22T19:24:38.752Z,98328.97
2022-10-22T19:27:45.480Z,98335.19
2022-10-22T19:30:51.507Z,98338.72
2022-10-22T19:33:58.230Z,98336.00
2022-10-22T19:37:04.201Z,98348.50
2022-10-22T19:40:16.615Z,98339.69
2022-10-22T19:43:22.193Z,98347.69
2022-10-22T19:46:30.374Z,98355.44
2022-10-22T19:49:37.005Z,98358.91
2022-10-22T19:52:43.939Z,98358.81
2022-10-22T19:55:52.686Z,98368.97
2022-10-22T19:59:00.198Z,98375.06
2022-10-22T20:02:08.168Z,98372.50
2022-10-22T20:05:15.024Z,98375.97
2022-10-22T20:08:20.621Z,98375.88
2022-10-22T20:11:31.640Z,98374.22
2022-10-22T20:14:37.642Z,98372.34
2022-10-22T20:17:44.282Z,98368.41
2022-10-22T20:20:50.174Z,98380.47
2022-10-22T20:23:57.876Z,98381.13
2022-10-22T20:27:06.543Z,98379.91
2022-10-22T20:30:13.886Z,98373.63
2022-10-22T20:33:19.650Z,98378.72
2022-10-22T20:36:27.185Z,98375.22
2022-10-22T20:39:32.899Z,98379.38
2022-10-22T20:42:42.389Z,98382.75
2022-10-22T20:45:48.220Z,98389.03
2022-10-22T20:48:56.893Z,98395.59
2022-10-22T20:52:03.276Z,98391.03
2022-10-22T20:55:10.228Z,98394.88
2022-10-22T20:58:20.697Z,98390.28
2022-10-22T21:01:28.825Z,98396.28
2022-10-22T21:04:35.337Z,98395.25
2022-10-22T21:07:42.106Z,98401.91
2022-10-22T21:10:49.669Z,98403.72
2022-10-22T21:13:58.881Z,98405.31
2022-10-22T21:17:08.245Z,98414.31
2022-10-22T21:20:14.758Z,98412.63
2022-10-22T21:23:20.315Z,98414.47
2022-10-22T21:26:27.659Z,98409.41
2022-10-22T21:29:36.536Z,98415.63
2022-10-22T21:32:43.182Z,98413.84
2022-10-22T21:35:54.515Z,98416.38
2022-10-22T21:39:00.984Z,98412.13
2022-10-22T21:42:07.916Z,98427.03
2022-10-22T21:45:19.953Z,98428.75
2022-10-22T21:48:27.781Z,98427.63
2022-10-22T21:51:38.286Z,98420.50
2022-10-22T21:54:43.891Z,98427.63
2022-10-22T21:57:50.367Z,98424.06
2022-10-22T22:01:05.325Z,98430.00
2022-10-22T22:04:11.896Z,98426.50
2022-10-22T22:07:17.678Z,98426.50
2022-10-22T22:10:25.444Z,98428.19
2022-10-22T22:13:31.249Z,98439.53
2022-10-22T22:16:40.656Z,98438.50
2022-10-22T22:19:46.289Z,98438.63
2022-10-22T22:22:52.769Z,98440.41
2022-10-22T22:26:04.082Z,98438.78
2022-10-22T22:29:10.610Z,98437.03
2022-10-22T22:32:18.920Z,98434.47
2022-10-22T22:35:25.471Z,98435.66
2022-10-22T22:38:31.460Z,98443.31
2022-10-22T22:41:38.043Z,98445.81
2022-10-22T22:44:43.831Z,98444.22
2022-10-22T22:47:53.090Z,98456.50
2022-10-22T22:51:00.184Z,98460.91
2022-10-22T22:54:08.929Z,98464.66
2022-10-22T22:57:14.731Z,98469.44
2022-10-22T23:00:21.441Z,98470.38
2022-10-22T23:03:30.082Z,98464.19
2022-10-22T23:06:39.065Z,98458.75
2022-10-22T23:09:44.691Z,98456.03
2022-10-22T23:12:51.119Z,98467.41
2022-10-22T23:15:57.074Z,98466.81
2022-10-22T23:19:07.393Z,98471.13
2022-10-22T23:22:13.265Z,98481.44
2022-10-22T23:25:19.731Z,98482.94
2022-10-22T23:28:26.293Z,98488.88
2022-10-22T23:31:32.947Z,98483.16
2022-10-22T23:34:41.563Z,98483.91
2022-10-22T23:37:48.052Z,98496.28
2022-10-22T23:40:57.433Z,98503.03
2022-10-22T23:44:03.907Z,98506.69
2022-10-22T23:47:09.771Z,98506.88
2022-10-22T23:50:19.085Z,98512.78
2022-10-22T23:53:24.705Z,98509.50
2022-10-22T23:56:32.092Z,98508.75
2022-10-22T23:59:38.086Z,98513.13
